Terminal Aerodrome Forecast
Issued by NWS

Home | Current Version | Previous Version | Text Only | Print | Product List | Glossary On
Versions: 1 2 3 4 5 6 7 8 9 10 11 12 13 14 15 16 17 18 19 20
000
FTAK31 PAJN 260641 AAA
TAFAWG
TAF AMD
PAWG 260641Z 2607/2706 12004KT P6SM -RA FEW008 BKN030 OVC040
      TEMPO 2607/2609 BKN005 OVC040
     FM260900 12006KT 6SM -RA BKN005 BKN015 OVC040
     FM261100 12012G22KT 3SM -RA BR BKN007 BKN015 OVC040
      WS020/15040KT
     FM261500 11012KT 3SM -RA BR SCT007 OVC015 WS020/16040KT
     FM262000 12010KT 4SM -RA BR SCT007 OVC015
      AMD LTD TO CLD VIS AND WIND 2606/2615=

USA.gov is the U.S. government's official web portal to all federal, state and local government web resources and services.